sensor_id;sensor_type;location;lat;lon;timestamp;pressure;altitude;pressure_sealevel;temperature;humidity
15750;BME280;7976;52.526;13.326;2024-02-26T00:00:37;99981.94;;;7.55;75.67
15750;BME280;7976;52.526;13.326;2024-02-26T00:03:05;99977.69;;;7.52;75.71
15750;BME280;7976;52.526;13.326;2024-02-26T00:05:32;99972.59;;;7.49;75.92
15750;BME280;7976;52.526;13.326;2024-02-26T00:07:59;99977.94;;;7.46;75.62
15750;BME280;7976;52.526;13.326;2024-02-26T00:10:26;99971.06;;;7.44;75.91
15750;BME280;7976;52.526;13.326;2024-02-26T00:12:53;99971.06;;;7.44;76.14
15750;BME280;7976;52.526;13.326;2024-02-26T00:15:20;99964.22;;;7.41;76.10
15750;BME280;7976;52.526;13.326;2024-02-26T00:17:47;99967.59;;;7.43;76.37
15750;BME280;7976;52.526;13.326;2024-02-26T00:20:15;99961.78;;;7.37;76.58
15750;BME280;7976;52.526;13.326;2024-02-26T00:22:42;99958.56;;;7.30;76.68
15750;BME280;7976;52.526;13.326;2024-02-26T00:25:09;99961.22;;;7.29;77.35
15750;BME280;7976;52.526;13.326;2024-02-26T00:27:38;99960.34;;;7.30;77.34
15750;BME280;7976;52.526;13.326;2024-02-26T00:30:07;99975.16;;;7.28;77.16
15750;BME280;7976;52.526;13.326;2024-02-26T00:32:34;99959.53;;;7.28;77.40
15750;BME280;7976;52.526;13.326;2024-02-26T00:35:01;99970.06;;;7.25;77.38
15750;BME280;7976;52.526;13.326;2024-02-26T00:37:29;99967.47;;;7.23;77.85
15750;BME280;7976;52.526;13.326;2024-02-26T00:39:56;99958.78;;;7.24;77.80
15750;BME280;7976;52.526;13.326;2024-02-26T00:42:23;99961.41;;;7.24;77.93
15750;BME280;7976;52.526;13.326;2024-02-26T00:44:49;99954.47;;;7.23;77.86
15750;BME280;7976;52.526;13.326;2024-02-26T00:47:16;99955.41;;;7.22;77.82
15750;BME280;7976;52.526;13.326;2024-02-26T00:49:43;99950.06;;;7.25;78.02
15750;BME280;7976;52.526;13.326;2024-02-26T00:52:10;99951.78;;;7.26;78.02
15750;BME280;7976;52.526;13.326;2024-02-26T00:54:38;99950.06;;;7.25;77.94
15750;BME280;7976;52.526;13.326;2024-02-26T00:57:05;99951.84;;;7.25;77.85
15750;BME280;7976;52.526;13.326;2024-02-26T00:59:32;99940.59;;;7.24;78.13
15750;BME280;7976;52.526;13.326;2024-02-26T01:01:58;99938.97;;;7.20;77.86
15750;BME280;7976;52.526;13.326;2024-02-26T01:04:27;99941.59;;;7.20;78.06
15750;BME280;7976;52.526;13.326;2024-02-26T01:06:54;99939.97;;;7.18;78.32
15750;BME280;7976;52.526;13.326;2024-02-26T01:09:21;99941.72;;;7.17;78.39
15750;BME280;7976;52.526;13.326;2024-02-26T01:11:49;99947.03;;;7.14;78.37
15750;BME280;7976;52.526;13.326;2024-02-26T01:14:16;99948.88;;;7.11;78.45
15750;BME280;7976;52.526;13.326;2024-02-26T01:16:43;99950.69;;;7.09;78.79
15750;BME280;7976;52.526;13.326;2024-02-26T01:19:09;99954.25;;;7.06;78.74
15750;BME280;7976;52.526;13.326;2024-02-26T01:21:36;99944.75;;;7.05;79.00
15750;BME280;7976;52.526;13.326;2024-02-26T01:24:04;99948.25;;;7.04;78.91
15750;BME280;7976;52.526;13.326;2024-02-26T01:26:30;99954.31;;;7.05;79.20
15750;BME280;7976;52.526;13.326;2024-02-26T01:28:59;99950.88;;;7.04;79.17
15750;BME280;7976;52.526;13.326;2024-02-26T01:31:26;99952.59;;;7.04;79.28
15750;BME280;7976;52.526;13.326;2024-02-26T01:33:52;99949.25;;;7.00;79.25
15750;BME280;7976;52.526;13.326;2024-02-26T01:36:19;99953.66;;;6.98;79.54
15750;BME280;7976;52.526;13.326;2024-02-26T01:38:46;99943.38;;;6.95;79.38
15750;BME280;7976;52.526;13.326;2024-02-26T01:41:13;99940.09;;;6.90;79.72
15750;BME280;7976;52.526;13.326;2024-02-26T01:43:40;99940.16;;;6.89;79.59
15750;BME280;7976;52.526;13.326;2024-02-26T01:46:14;99935.97;;;6.85;79.83
15750;BME280;7976;52.526;13.326;2024-02-26T01:48:41;99932.63;;;6.81;80.02
15750;BME280;7976;52.526;13.326;2024-02-26T01:51:08;99930.13;;;6.78;80.27
15750;BME280;7976;52.526;13.326;2024-02-26T01:53:37;99925.84;;;6.77;80.28
15750;BME280;7976;52.526;13.326;2024-02-26T01:56:04;99929.44;;;6.73;80.53
15750;BME280;7976;52.526;13.326;2024-02-26T01:58:32;99937.44;;;6.67;80.52
15750;BME280;7976;52.526;13.326;2024-02-26T02:01:01;99937.56;;;6.64;81.11
15750;BME280;7976;52.526;13.326;2024-02-26T02:03:31;99940.06;;;6.67;81.13
15750;BME280;7976;52.526;13.326;2024-02-26T02:05:58;99937.34;;;6.70;81.20
15750;BME280;7976;52.526;13.326;2024-02-26T02:08:25;99945.19;;;6.69;80.99
15750;BME280;7976;52.526;13.326;2024-02-26T02:10:52;99943.44;;;6.69;81.38
15750;BME280;7976;52.526;13.326;2024-02-26T02:13:19;99948.53;;;6.72;81.39
15750;BME280;7976;52.526;13.326;2024-02-26T02:15:46;99943.41;;;6.71;81.30
15750;BME280;7976;52.526;13.326;2024-02-26T02:18:13;99941.72;;;6.70;81.17
15750;BME280;7976;52.526;13.326;2024-02-26T02:20:41;99935.75;;;6.66;81.50
15750;BME280;7976;52.526;13.326;2024-02-26T02:23:08;99941.72;;;6.68;81.41
15750;BME280;7976;52.526;13.326;2024-02-26T02:25:35;99937.44;;;6.67;81.61
15750;BME280;7976;52.526;13.326;2024-02-26T02:28:02;99937.34;;;6.70;81.65
15750;BME280;7976;52.526;13.326;2024-02-26T02:30:30;99933.91;;;6.70;81.57
15750;BME280;7976;52.526;13.326;2024-02-26T02:32:59;99938.19;;;6.71;81.79
15750;BME280;7976;52.526;13.326;2024-02-26T02:35:25;99938.25;;;6.69;81.69
15750;BME280;7976;52.526;13.326;2024-02-26T02:37:56;99941.72;;;6.70;81.55
15750;BME280;7976;52.526;13.326;2024-02-26T02:40:23;99941.72;;;6.70;81.63
15750;BME280;7976;52.526;13.326;2024-02-26T02:42:50;99936.53;;;6.68;81.64
15750;BME280;7976;52.526;13.326;2024-02-26T02:45:17;99940.00;;;6.69;81.61
15750;BME280;7976;52.526;13.326;2024-02-26T02:47:44;99941.03;;;6.63;82.18
15750;BME280;7976;52.526;13.326;2024-02-26T02:50:10;99938.41;;;6.65;81.80
15750;BME280;7976;52.526;13.326;2024-02-26T02:52:37;99941.97;;;6.62;81.97
15750;BME280;7976;52.526;13.326;2024-02-26T02:55:06;99942.94;;;6.58;82.27
15750;BME280;7976;52.526;13.326;2024-02-26T02:57:34;99949.16;;;6.54;82.06
15750;BME280;7976;52.526;13.326;2024-02-26T03:00:07;99951.81;;;6.53;82.32
15750;BME280;7976;52.526;13.326;2024-02-26T03:02:35;99956.09;;;6.54;82.63
15750;BME280;7976;52.526;13.326;2024-02-26T03:05:02;99954.38;;;6.54;82.46
15750;BME280;7976;52.526;13.326;2024-02-26T03:07:29;99953.50;;;6.54;82.66
15750;BME280;7976;52.526;13.326;2024-02-26T03:09:56;99958.66;;;6.55;82.50
15750;BME280;7976;52.526;13.326;2024-02-26T03:12:24;99960.56;;;6.50;82.73
15750;BME280;7976;52.526;13.326;2024-02-26T03:14:51;99959.81;;;6.47;82.83
15750;BME280;7976;52.526;13.326;2024-02-26T03:17:20;99958.22;;;6.43;83.24
15750;BME280;7976;52.526;13.326;2024-02-26T03:19:46;99958.19;;;6.44;83.34
15750;BME280;7976;52.526;13.326;2024-02-26T03:22:18;99954.81;;;6.41;83.44
15750;BME280;7976;52.526;13.326;2024-02-26T03:24:45;99959.28;;;6.37;83.38
15750;BME280;7976;52.526;13.326;2024-02-26T03:27:12;99955.03;;;6.34;83.76
15750;BME280;7976;52.526;13.326;2024-02-26T03:29:41;99951.53;;;6.35;84.09
15750;BME280;7976;52.526;13.326;2024-02-26T03:32:08;99949.75;;;6.38;83.76
15750;BME280;7976;52.526;13.326;2024-02-26T03:34:35;99947.19;;;6.36;83.97
15750;BME280;7976;52.526;13.326;2024-02-26T03:37:02;99954.25;;;6.32;83.98
15750;BME280;7976;52.526;13.326;2024-02-26T03:39:28;99951.69;;;6.31;84.33
15750;BME280;7976;52.526;13.326;2024-02-26T03:41:55;99953.38;;;6.32;84.54
15750;BME280;7976;52.526;13.326;2024-02-26T03:44:22;99956.94;;;6.29;84.34
15750;BME280;7976;52.526;13.326;2024-02-26T03:46:50;99954.28;;;6.31;84.50
15750;BME280;7976;52.526;13.326;2024-02-26T03:49:17;99954.28;;;6.31;84.43
15750;BME280;7976;52.526;13.326;2024-02-26T03:51:44;99962.09;;;6.31;84.57
15750;BME280;7976;52.526;13.326;2024-02-26T03:54:10;99962.22;;;6.26;85.04
15750;BME280;7976;52.526;13.326;2024-02-26T03:56:37;99965.72;;;6.25;85.02
15750;BME280;7976;52.526;13.326;2024-02-26T03:59:04;99970.00;;;6.26;85.23
15750;BME280;7976;52.526;13.326;2024-02-26T04:01:31;99969.19;;;6.26;85.21
15750;BME280;7976;52.526;13.326;2024-02-26T04:04:00;99967.47;;;6.25;85.20
15750;BME280;7976;52.526;13.326;2024-02-26T04:06:27;99974.41;;;6.24;85.34
15750;BME280;7976;52.526;13.326;2024-02-26T04:08:53;99981.34;;;6.24;85.42
15750;BME280;7976;52.526;13.326;2024-02-26T04:11:20;99976.25;;;6.21;85.22
15750;BME280;7976;52.526;13.326;2024-02-26T04:13:48;99978.94;;;6.18;85.49
15750;BME280;7976;52.526;13.326;2024-02-26T04:16:17;99969.56;;;6.14;85.55
15750;BME280;7976;52.526;13.326;2024-02-26T04:18:44;99977.25;;;6.17;85.63
15750;BME280;7976;52.526;13.326;2024-02-26T04:21:13;99973.78;;;6.16;85.53
15750;BME280;7976;52.526;13.326;2024-02-26T04:23:39;99975.69;;;6.11;85.76
15750;BME280;7976;52.526;13.326;2024-02-26T04:26:06;99977.44;;;6.11;86.14
15750;BME280;7976;52.526;13.326;2024-02-26T04:28:33;99984.28;;;6.13;85.95
15750;BME280;7976;52.526;13.326;2024-02-26T04:31:00;99981.75;;;6.12;86.28
15750;BME280;7976;52.526;13.326;2024-02-26T04:33:27;99985.16;;;6.14;86.08
15750;BME280;7976;52.526;13.326;2024-02-26T04:35:54;99989.38;;;6.16;86.19
15750;BME280;7976;52.526;13.326;2024-02-26T04:38:23;99991.00;;;6.20;85.84
15750;BME280;7976;52.526;13.326;2024-02-26T04:40:50;99991.03;;;6.19;85.73
15750;BME280;7976;52.526;13.326;2024-02-26T04:43:17;99994.63;;;6.15;85.91
15750;BME280;7976;52.526;13.326;2024-02-26T04:45:45;100000.81;;;6.11;85.96
15750;BME280;7976;52.526;13.326;2024-02-26T04:48:12;100002.50;;;6.12;86.31
15750;BME280;7976;52.526;13.326;2024-02-26T04:50:39;100000.81;;;6.11;86.33
15750;BME280;7976;52.526;13.326;2024-02-26T04:53:06;100004.34;;;6.08;86.32
15750;BME280;7976;52.526;13.326;2024-02-26T04:55:35;100001.09;;;6.02;86.37
15750;BME280;7976;52.526;13.326;2024-02-26T04:58:02;100009.88;;;5.98;86.75
15750;BME280;7976;52.526;13.326;2024-02-26T05:00:29;100005.69;;;5.94;87.08
15750;BME280;7976;52.526;13.326;2024-02-26T05:02:56;100013.56;;;5.91;87.48
15750;BME280;7976;52.526;13.326;2024-02-26T05:05:23;100009.25;;;5.90;87.69
15750;BME280;7976;52.526;13.326;2024-02-26T05:07:50;100011.03;;;5.89;87.67
15750;BME280;7976;52.526;13.326;2024-02-26T05:10:17;100011.03;;;5.88;87.92
15750;BME280;7976;52.526;13.326;2024-02-26T05:12:45;100023.09;;;5.90;87.82
15750;BME280;7976;52.526;13.326;2024-02-26T05:15:12;100014.34;;;5.93;87.71
15750;BME280;7976;52.526;13.326;2024-02-26T05:17:44;100022.94;;;5.95;87.67
15750;BME280;7976;52.526;13.326;2024-02-26T05:20:11;100016.94;;;5.94;87.64
15750;BME280;7976;52.526;13.326;2024-02-26T05:22:38;100026.44;;;5.94;87.53
15750;BME280;7976;52.526;13.326;2024-02-26T05:25:06;100026.56;;;5.91;87.69
15750;BME280;7976;52.526;13.326;2024-02-26T05:27:33;100035.22;;;5.90;87.59
15750;BME280;7976;52.526;13.326;2024-02-26T05:30:01;100034.56;;;5.83;87.84
15750;BME280;7976;52.526;13.326;2024-02-26T05:32:29;100034.66;;;5.79;87.95
15750;BME280;7976;52.526;13.326;2024-02-26T05:34:56;100033.94;;;5.74;88.02
15750;BME280;7976;52.526;13.326;2024-02-26T05:37:23;100033.09;;;5.73;88.38
15750;BME280;7976;52.526;13.326;2024-02-26T05:39:50;100033.09;;;5.73;88.39
15750;BME280;7976;52.526;13.326;2024-02-26T05:42:17;100040.91;;;5.72;88.34
15750;BME280;7976;52.526;13.326;2024-02-26T05:44:45;100042.69;;;5.70;88.25
15750;BME280;7976;52.526;13.326;2024-02-26T05:47:14;100045.38;;;5.67;88.50
15750;BME280;7976;52.526;13.326;2024-02-26T05:49:41;100041.97;;;5.65;88.71
15750;BME280;7976;52.526;13.326;2024-02-26T05:52:08;100048.91;;;5.66;88.69
15750;BME280;7976;52.526;13.326;2024-02-26T05:54:35;100050.69;;;5.64;88.74
15750;BME280;7976;52.526;13.326;2024-02-26T05:57:03;100051.59;;;5.61;89.11
15750;BME280;7976;52.526;13.326;2024-02-26T05:59:30;100053.31;;;5.62;89.29
15750;BME280;7976;52.526;13.326;2024-02-26T06:01:57;100058.56;;;5.61;89.30
15750;BME280;7976;52.526;13.326;2024-02-26T06:04:25;100062.03;;;5.60;89.22
15750;BME280;7976;52.526;13.326;2024-02-26T06:06:53;100061.94;;;5.63;89.53
15750;BME280;7976;52.526;13.326;2024-02-26T06:09:20;100061.91;;;5.64;89.30
15750;BME280;7976;52.526;13.326;2024-02-26T06:11:47;100065.34;;;5.65;89.25
15750;BME280;7976;52.526;13.326;2024-02-26T06:14:14;100067.13;;;5.63;89.40
15750;BME280;7976;52.526;13.326;2024-02-26T06:16:43;100069.75;;;5.61;89.48
15750;BME280;7976;52.526;13.326;2024-02-26T06:19:10;100067.22;;;5.60;89.62
15750;BME280;7976;52.526;13.326;2024-02-26T06:21:39;100067.25;;;5.58;89.71
15750;BME280;7976;52.526;13.326;2024-02-26T06:24:05;100072.41;;;5.60;89.88
15750;BME280;7976;52.526;13.326;2024-02-26T06:26:33;100076.72;;;5.61;89.99
15750;BME280;7976;52.526;13.326;2024-02-26T06:28:59;100079.25;;;5.62;89.92
15750;BME280;7976;52.526;13.326;2024-02-26T06:31:26;100067.97;;;5.63;89.93
15750;BME280;7976;52.526;13.326;2024-02-26T06:33:55;100073.06;;;5.66;90.07
15750;BME280;7976;52.526;13.326;2024-02-26T06:36:22;100073.00;;;5.69;90.18
15750;BME280;7976;52.526;13.326;2024-02-26T06:38:50;100086.72;;;5.74;90.18
15750;BME280;7976;52.526;13.326;2024-02-26T06:41:19;100090.03;;;5.78;89.84
15750;BME280;7976;52.526;13.326;2024-02-26T06:43:47;100088.22;;;5.81;89.79
15750;BME280;7976;52.526;13.326;2024-02-26T06:46:14;100088.13;;;5.86;89.81
15750;BME280;7976;52.526;13.326;2024-02-26T06:48:41;100088.84;;;5.91;89.59
15750;BME280;7976;52.526;13.326;2024-02-26T06:51:08;100092.28;;;5.91;89.54
15750;BME280;7976;52.526;13.326;2024-02-26T06:53:34;100098.28;;;5.93;89.54
15750;BME280;7976;52.526;13.326;2024-02-26T06:56:04;100104.16;;;6.00;89.45
15750;BME280;7976;52.526;13.326;2024-02-26T06:58:31;100112.66;;;6.05;89.02
15750;BME280;7976;52.526;13.326;2024-02-26T07:00:58;100109.97;;;6.08;89.03
15750;BME280;7976;52.526;13.326;2024-02-26T07:03:25;100109.09;;;6.09;89.10
15750;BME280;7976;52.526;13.326;2024-02-26T07:05:52;100117.69;;;6.11;89.16
15750;BME280;7976;52.526;13.326;2024-02-26T07:08:19;100120.19;;;6.14;88.94
15750;BME280;7976;52.526;13.326;2024-02-26T07:10:46;100118.44;;;6.14;88.87
15750;BME280;7976;52.526;13.326;2024-02-26T07:13:15;100126.19;;;6.16;89.10
15750;BME280;7976;52.526;13.326;2024-02-26T07:15:42;100126.97;;;6.19;89.04
15750;BME280;7976;52.526;13.326;2024-02-26T07:18:10;100129.56;;;6.19;88.86
15750;BME280;7976;52.526;13.326;2024-02-26T07:20:37;100120.72;;;6.25;88.92
15750;BME280;7976;52.526;13.326;2024-02-26T07:23:04;100117.13;;;6.29;88.72
15750;BME280;7976;52.526;13.326;2024-02-26T07:25:32;100124.81;;;6.32;88.79
15750;BME280;7976;52.526;13.326;2024-02-26T07:27:59;100120.28;;;6.38;88.88
15750;BME280;7976;52.526;13.326;2024-02-26T07:30:27;100126.97;;;6.47;88.44
15750;BME280;7976;52.526;13.326;2024-02-26T07:32:54;100128.47;;;6.54;88.41
15750;BME280;7976;52.526;13.326;2024-02-26T07:35:22;100124.09;;;6.56;87.94
15750;BME280;7976;52.526;13.326;2024-02-26T07:37:49;100131.84;;;6.58;87.88
15750;BME280;7976;52.526;13.326;2024-02-26T07:40:16;100128.28;;;6.60;87.77
15750;BME280;7976;52.526;13.326;2024-02-26T07:42:44;100122.91;;;6.66;87.69
15750;BME280;7976;52.526;13.326;2024-02-26T07:45:11;100117.50;;;6.72;87.86
15750;BME280;7976;52.526;13.326;2024-02-26T07:47:39;100123.31;;;6.80;87.58
15750;BME280;7976;52.526;13.326;2024-02-26T07:50:08;100121.28;;;6.90;87.46
15750;BME280;7976;52.526;13.326;2024-02-26T07:52:35;100123.72;;;6.94;86.85
15750;BME280;7976;52.526;13.326;2024-02-26T07:55:02;100125.97;;;7.05;87.18
15750;BME280;7976;52.526;13.326;2024-02-26T07:57:29;100125.72;;;7.12;86.88
15750;BME280;7976;52.526;13.326;2024-02-26T07:59:56;100123.81;;;7.17;86.66
15750;BME280;7976;52.526;13.326;2024-02-26T08:02:22;100124.41;;;7.25;86.39
15750;BME280;7976;52.526;13.326;2024-02-26T08:04:51;100126.81;;;7.31;85.88
15750;BME280;7976;52.526;13.326;2024-02-26T08:07:18;100130.16;;;7.35;85.72
15750;BME280;7976;52.526;13.326;2024-02-26T08:09:46;100127.34;;;7.41;85.29
15750;BME280;7976;52.526;13.326;2024-02-26T08:12:13;100135.66;;;7.50;85.17
15750;BME280;7976;52.526;13.326;2024-02-26T08:14:40;100129.34;;;7.57;84.82
15750;BME280;7976;52.526;13.326;2024-02-26T08:17:08;100118.81;;;7.60;84.54
15750;BME280;7976;52.526;13.326;2024-02-26T08:19:35;100135.19;;;7.64;84.26
15750;BME280;7976;52.526;13.326;2024-02-26T08:22:04;100127.25;;;7.67;84.04
15750;BME280;7976;52.526;13.326;2024-02-26T08:24:31;100128.88;;;7.71;83.90
15750;BME280;7976;52.526;13.326;2024-02-26T08:26:57;100130.41;;;7.77;84.03
15750;BME280;7976;52.526;13.326;2024-02-26T08:29:24;100133.63;;;7.83;83.54
15750;BME280;7976;52.526;13.326;2024-02-26T08:31:51;100135.13;;;7.90;83.40
15750;BME280;7976;52.526;13.326;2024-02-26T08:34:18;100132.28;;;7.96;82.82
15750;BME280;7976;52.526;13.326;2024-02-26T08:36:45;100132.91;;;8.03;82.58
15750;BME280;7976;52.526;13.326;2024-02-26T08:39:13;100140.41;;;8.12;82.38
15750;BME280;7976;52.526;13.326;2024-02-26T08:41:40;100137.44;;;8.21;82.06
15750;BME280;7976;52.526;13.326;2024-02-26T08:44:07;100132.88;;;8.27;81.75
15750;BME280;7976;52.526;13.326;2024-02-26T08:46:34;100130.91;;;8.34;81.46
15750;BME280;7976;52.526;13.326;2024-02-26T08:49:01;100125.38;;;8.41;81.33
15750;BME280;7976;52.526;13.326;2024-02-26T08:51:28;100121.56;;;8.50;81.05
15750;BME280;7976;52.526;13.326;2024-02-26T08:53:55;100130.88;;;8.57;80.60
15750;BME280;7976;52.526;13.326;2024-02-26T08:56:23;100124.50;;;8.64;80.24
15750;BME280;7976;52.526;13.326;2024-02-26T08:58:50;100122.44;;;8.72;79.93
15750;BME280;7976;52.526;13.326;2024-02-26T09:01:19;100122.06;;;8.81;79.57
15750;BME280;7976;52.526;13.326;2024-02-26T09:03:46;100119.09;;;8.90;79.03
15750;BME280;7976;52.526;13.326;2024-02-26T09:06:16;100118.75;;;8.98;78.60
15750;BME280;7976;52.526;13.326;2024-02-26T09:08:44;100122.09;;;9.01;78.27
15750;BME280;7976;52.526;13.326;2024-02-26T09:11:11;100116.78;;;9.04;78.30
15750;BME280;7976;52.526;13.326;2024-02-26T09:13:39;100126.16;;;9.08;77.97
15750;BME280;7976;52.526;13.326;2024-02-26T09:16:07;100120.88;;;9.10;77.83
15750;BME280;7976;52.526;13.326;2024-02-26T09:18:34;100119.78;;;9.15;77.74
15750;BME280;7976;52.526;13.326;2024-02-26T09:21:06;100118.75;;;9.19;77.60
15750;BME280;7976;52.526;13.326;2024-02-26T09:23:33;100128.19;;;9.22;77.40
15750;BME280;7976;52.526;13.326;2024-02-26T09:26:01;100122.13;;;9.21;77.08
15750;BME280;7976;52.526;13.326;2024-02-26T09:28:28;100122.91;;;9.23;77.25
15750;BME280;7976;52.526;13.326;2024-02-26T09:30:59;100125.47;;;9.25;77.31
15750;BME280;7976;52.526;13.326;2024-02-26T09:33:26;100127.94;;;9.28;76.89
15750;BME280;7976;52.526;13.326;2024-02-26T09:35:53;100134.81;;;9.30;76.59
15750;BME280;7976;52.526;13.326;2024-02-26T09:38:20;100131.19;;;9.33;76.51
15750;BME280;7976;52.526;13.326;2024-02-26T09:40:48;100134.75;;;9.32;76.27
15750;BME280;7976;52.526;13.326;2024-02-26T09:43:21;100134.59;;;9.35;76.63
15750;BME280;7976;52.526;13.326;2024-02-26T09:45:50;100134.44;;;9.39;76.29
15750;BME280;7976;52.526;13.326;2024-02-26T09:48:19;100127.28;;;9.43;75.90
15750;BME280;7976;52.526;13.326;2024-02-26T09:50:47;100131.41;;;9.48;75.71
15750;BME280;7976;52.526;13.326;2024-02-26T09:53:18;100134.94;;;9.47;75.58
15750;BME280;7976;52.526;13.326;2024-02-26T09:55:47;100139.97;;;9.52;75.60
15750;BME280;7976;52.526;13.326;2024-02-26T09:58:15;100134.53;;;9.56;75.42
15750;BME280;7976;52.526;13.326;2024-02-26T10:00:51;100142.00;;;9.65;75.17
15750;BME280;7976;52.526;13.326;2024-02-26T10:03:27;100138.84;;;9.77;74.67
15750;BME280;7976;52.526;13.326;2024-02-26T10:05:55;100139.28;;;9.87;74.29
15750;BME280;7976;52.526;13.326;2024-02-26T10:08:24;100143.19;;;9.97;73.92
15750;BME280;7976;52.526;13.326;2024-02-26T10:10:54;100152.47;;;10.04;73.67
15750;BME280;7976;52.526;13.326;2024-02-26T10:13:21;100147.69;;;10.13;73.63
15750;BME280;7976;52.526;13.326;2024-02-26T10:15:48;100142.97;;;10.22;73.53
15750;BME280;7976;52.526;13.326;2024-02-26T10:18:16;100144.47;;;10.27;73.17
15750;BME280;7976;52.526;13.326;2024-02-26T10:20:59;100143.34;;;10.33;72.51
15750;BME280;7976;52.526;13.326;2024-02-26T10:23:27;100136.13;;;10.38;72.41
15750;BME280;7976;52.526;13.326;2024-02-26T10:25:54;100140.91;;;10.47;72.02
15750;BME280;7976;52.526;13.326;2024-02-26T10:28:22;100146.66;;;10.55;71.78
15750;BME280;7976;52.526;13.326;2024-02-26T10:30:51;100142.19;;;10.57;71.41
15750;BME280;7976;52.526;13.326;2024-02-26T10:33:18;100152.38;;;10.63;71.35
15750;BME280;7976;52.526;13.326;2024-02-26T10:35:48;100150.09;;;10.74;71.04
15750;BME280;7976;52.526;13.326;2024-02-26T10:38:15;100148.66;;;10.85;70.97
15750;BME280;7976;52.526;13.326;2024-02-26T10:40:46;100140.44;;;10.93;70.92
15750;BME280;7976;52.526;13.326;2024-02-26T10:43:13;100139.38;;;10.97;70.45
15750;BME280;7976;52.526;13.326;2024-02-26T10:45:43;100134.81;;;11.00;70.31
15750;BME280;7976;52.526;13.326;2024-02-26T10:48:13;100141.53;;;11.06;69.38
15750;BME280;7976;52.526;13.326;2024-02-26T10:50:40;100145.84;;;11.07;68.87
15750;BME280;7976;52.526;13.326;2024-02-26T10:53:16;100146.44;;;11.13;68.80
15750;BME280;7976;52.526;13.326;2024-02-26T10:55:48;100141.09;;;11.15;68.40
15750;BME280;7976;52.526;13.326;2024-02-26T10:58:16;100143.72;;;11.15;68.19
15750;BME280;7976;52.526;13.326;2024-02-26T11:00:45;100139.41;;;11.14;68.25
15750;BME280;7976;52.526;13.326;2024-02-26T11:03:15;100135.88;;;11.15;68.09
15750;BME280;7976;52.526;13.326;2024-02-26T11:05:48;100135.78;;;11.16;67.33
15750;BME280;7976;52.526;13.326;2024-02-26T11:08:19;100136.41;;;11.21;67.55
15750;BME280;7976;52.526;13.326;2024-02-26T11:10:48;100140.44;;;11.28;67.41
15750;BME280;7976;52.526;13.326;2024-02-26T11:13:19;100142.72;;;11.34;67.42
15750;BME280;7976;52.526;13.326;2024-02-26T11:15:48;100144.41;;;11.35;66.88
15750;BME280;7976;52.526;13.326;2024-02-26T11:18:16;100135.66;;;11.36;66.83
15750;BME280;7976;52.526;13.326;2024-02-26T11:20:44;100148.34;;;11.44;66.94
15750;BME280;7976;52.526;13.326;2024-02-26T11:23:12;100148.88;;;11.51;67.09
15750;BME280;7976;52.526;13.326;2024-02-26T11:25:40;100146.06;;;11.55;67.48
15750;BME280;7976;52.526;13.326;2024-02-26T11:28:11;100145.03;;;11.58;67.62
15750;BME280;7976;52.526;13.326;2024-02-26T11:30:44;100137.09;;;11.59;67.43
15750;BME280;7976;52.526;13.326;2024-02-26T11:33:13;100146.50;;;11.63;66.86
15750;BME280;7976;52.526;13.326;2024-02-26T11:35:41;100149.19;;;11.62;66.79
15750;BME280;7976;52.526;13.326;2024-02-26T11:38:17;100145.66;;;11.63;66.54
15750;BME280;7976;52.526;13.326;2024-02-26T11:40:48;100145.59;;;11.64;66.64
15750;BME280;7976;52.526;13.326;2024-02-26T11:43:15;100140.13;;;11.69;66.20
15750;BME280;7976;52.526;13.326;2024-02-26T11:45:50;100146.00;;;11.74;65.87
15750;BME280;7976;52.526;13.326;2024-02-26T11:48:23;100146.53;;;11.80;66.36
15750;BME280;7976;52.526;13.326;2024-02-26T11:50:53;100139.41;;;11.82;67.06
15750;BME280;7976;52.526;13.326;2024-02-26T11:53:22;100142.72;;;11.86;66.64
15750;BME280;7976;52.526;13.326;2024-02-26T11:56:24;100140.88;;;11.88;67.05
15750;BME280;7976;52.526;13.326;2024-02-26T11:59:05;100133.00;;;11.88;66.93
15750;BME280;7976;52.526;13.326;2024-02-26T12:01:39;100141.56;;;11.91;66.83
15750;BME280;7976;52.526;13.326;2024-02-26T12:04:07;100139.78;;;11.92;66.66
15750;BME280;7976;52.526;13.326;2024-02-26T12:06:51;100143.91;;;11.96;66.17
15750;BME280;7976;52.526;13.326;2024-02-26T12:09:32;100144.69;;;11.98;65.96
15750;BME280;7976;52.526;13.326;2024-02-26T12:12:02;100147.06;;;12.02;65.90
15750;BME280;7976;52.526;13.326;2024-02-26T12:14:29;100145.13;;;12.06;65.34
15750;BME280;7976;52.526;13.326;2024-02-26T12:16:56;100142.38;;;12.09;65.32
15750;BME280;7976;52.526;13.326;2024-02-26T12:19:24;100142.38;;;12.09;65.36
15750;BME280;7976;52.526;13.326;2024-02-26T12:21:52;100145.91;;;12.08;65.13
15750;BME280;7976;52.526;13.326;2024-02-26T12:24:21;100144.91;;;12.10;65.01
15750;BME280;7976;52.526;13.326;2024-02-26T12:26:48;100138.72;;;12.11;64.85
15750;BME280;7976;52.526;13.326;2024-02-26T12:29:16;100129.69;;;12.17;64.67
15750;BME280;7976;52.526;13.326;2024-02-26T12:31:43;100154.25;;;12.31;64.35
15750;BME280;7976;52.526;13.326;2024-02-26T12:34:10;100146.97;;;12.36;63.13
15750;BME280;7976;52.526;13.326;2024-02-26T12:36:38;100146.81;;;12.39;62.83
15750;BME280;7976;52.526;13.326;2024-02-26T12:39:07;100148.34;;;12.43;61.90
15750;BME280;7976;52.526;13.326;2024-02-26T12:41:35;100146.50;;;12.45;62.11
15750;BME280;7976;52.526;13.326;2024-02-26T12:44:03;100147.47;;;12.43;61.88
15750;BME280;7976;52.526;13.326;2024-02-26T12:46:31;100146.50;;;12.45;62.10
15750;BME280;7976;52.526;13.326;2024-02-26T12:48:59;100149.84;;;12.47;61.79
15750;BME280;7976;52.526;13.326;2024-02-26T12:51:26;100154.28;;;12.47;61.80
15750;BME280;7976;52.526;13.326;2024-02-26T12:53:56;100153.41;;;12.46;61.54
15750;BME280;7976;52.526;13.326;2024-02-26T12:56:24;100151.56;;;12.48;61.60
15750;BME280;7976;52.526;13.326;2024-02-26T12:58:53;100147.91;;;12.51;61.11
15750;BME280;7976;52.526;13.326;2024-02-26T13:01:24;100144.59;;;12.47;60.17
15750;BME280;7976;52.526;13.326;2024-02-26T13:03:53;100143.59;;;12.50;59.89
15750;BME280;7976;52.526;13.326;2024-02-26T13:06:21;100148.69;;;12.53;59.26